KAPA/APA METAR and TAF weather

Enter ICAO airport designator
Station Type Date Time Source
KAPA METAR 2018/07/16 23:53 UTC NOAA

KAPA 162353Z 03004G15KT 10SM FEW090 FEW150 SCT220 31/11 A3019 RMK AO2 LTG DSNT SE AND S SLP149 OCNL LTGICCG DSNT SE-S CB DSNT SE-S MOV S T03110111 10317 20250 56010 $


Station Type Date Time Source
KAPA Decoded METAR 2018/07/16 23:53 UTC NOAA

DENVER CENTENNIAL AIRPORT, CO, United States (KAPA) 39-34N 104-51W 1775M
Jul 16, 2018 - 07:53 PM EDT / 2018.07.16 2353 UTC
Wind: from the NNE (030 degrees) at 5 MPH (4 KT) gusting to 17 MPH (15 KT):0
Visibility: 10 mile(s):0
Sky conditions: partly cloudy
Weather: Cumulonimbus clouds, lightning observed
Temperature: 88.0 F (31.1 C)
Dew Point: 52.0 F (11.1 C)
Relative Humidity: 29%
Pressure (altimeter): 30.19 in. Hg (1022 hPa)
Pressure tendency: 0.03 inches (1.0 hPa) lower than three hours ago
ob: KAPA 162353Z 03004G15KT 10SM FEW090 FEW150 SCT220 31/11 A3019 RMK AO2 LTG DSNT SE AND S SLP149 OCNL LTGICCG DSNT SE-S CB DSNT SE-S MOV S T03110111 10317 20250 56010
cycle: 0

Station Type Date Time Source
KAPA TAF 2018/07/16 23:58 UTC NOAA

TAF
AMD KAPA 162255Z 1623/1718 02005KT P6SM FEW070 SCT120
FM170100 14010KT P6SM SCT080 BKN120
FM170300 17009KT P6SM FEW080 SCT120
FM170700 20008KT P6SM FEW120
FM171100 32006KT P6SM FEW020
FM171500 34006KT P6SM FEW140


Example: see airport list